Flight Track Log - Related Links

Times and Time Zones

All times are in EDT time to prevent confusion due to time zone crossing. See the N406RC flight status page for this flight to view local times or setup timezone preferences in your user account.

Time Position Orientation Groundspeed Altitude Reporting Facility
EDT Latitude Longitude Course Direction KTS MPH feet Rate Location/Type
Mon 05:25:39 AM 45.4283 -98.3472 90° East 117 135 3,500  Level Minneapolis Center
Mon 05:26:40 AM 45.4264 -98.2961 93° East 115 132 4,500 893 Climbing Minneapolis Center
Mon 05:27:40 AM 45.4264 -98.2572 90° East 113 130 5,300 750 Climbing Minneapolis Center
Mon 05:28:40 AM 45.4281 -98.2094 87° East 117 135 6,000 645 Climbing Minneapolis Center
Mon 05:29:41 AM 45.4283 -98.1514 90° East 135 155 6,600 595 Climbing Minneapolis Center
Mon 05:30:41 AM 45.4281 -98.0794 90° East 148 170 7,200 250 Climbing Minneapolis Center
Mon 05:31:00 AM 45.4500 -98.0176 90° East  Level FlightAware Approximate
Mon 05:31:41 AM 45.4294 -98.0086 88° East 161 185 7,100  Level Minneapolis Center
Mon 05:32:42 AM 45.4250 -97.9389 95° East 184 212 7,100  Level Minneapolis Center
Mon 05:33:42 AM 45.4267 -97.8633 88° East 191 220 7,100  Level Minneapolis Center
Mon 05:34:42 AM 45.4306 -97.7894 86° East 189 217 7,100  Level Minneapolis Center
Mon 05:35:43 AM 45.4342 -97.7139 86° East 190 219 7,100 -50 Level Minneapolis Center
Mon 05:36:43 AM 45.4403 -97.6397 83° East 189 217 7,000 -50 Descending Minneapolis Center
Mon 05:37:43 AM 45.4447 -97.5656 85° East 189 217 7,000  Level Minneapolis Center
Mon 05:38:44 AM 45.4503 -97.4883 84° East 194 223 7,000  Level Minneapolis Center
Mon 05:39:44 AM 45.4528 -97.4133 87° East 191 220 7,000  Level Minneapolis Center
Mon 05:40:44 AM 45.4569 -97.3367 86° East 194 223 7,000  Level Minneapolis Center
Mon 05:41:44 AM 45.4594 -97.2542 87° East 191 220 7,000  Level Minneapolis Center
Mon 05:42:45 AM 45.4603 -97.1875 89° East 189 217 7,000  Level Minneapolis Center
Mon 05:43:45 AM 45.4619 -97.1119 88° East 190 219 7,000  Level Minneapolis Center
Mon 05:44:45 AM 45.4650 -97.0361 87° East 192 221 7,000  Level Minneapolis Center
Mon 05:45:46 AM 45.4681 -96.9606 87° East 191 220 7,000  Level Minneapolis Center
Mon 05:46:46 AM 45.4711 -96.8856 87° East 190 219 7,000  Level Minneapolis Center
Mon 05:47:46 AM 45.4736 -96.8097 87° East 193 222 7,000  Level Minneapolis Center
Mon 05:48:47 AM 45.4761 -96.7358 87° East 189 217 7,000  Level Minneapolis Center
Mon 05:49:47 AM 45.4800 -96.6611 86° East 189 217 7,000  Level Minneapolis Center
Mon 05:50:47 AM 45.4822 -96.5856 88° East 191 220 7,000  Level Minneapolis Center
Mon 05:51:48 AM 45.4850 -96.5114 87° East 189 217 7,000  Level Minneapolis Center
Mon 05:52:48 AM 45.4878 -96.4339 87° East 192 221 7,000  Level Minneapolis Center
Mon 05:53:48 AM 45.4903 -96.3603 87° East 190 219 7,000  Level Minneapolis Center
Mon 05:54:48 AM 45.4917 -96.2861 88° East 189 217 7,000  Level Minneapolis Center
Mon 05:55:49 AM 45.4936 -96.2261 87° East 189 217 7,000  Level Minneapolis Center
Mon 05:56:49 AM 45.4958 -96.1211 88° East 189 217 7,000  Level Minneapolis Center
Mon 05:57:49 AM 45.4969 -96.0478 89° East 188 216 7,000  Level Minneapolis Center
Mon 05:58:50 AM 45.4994 -95.9747 87° East 186 214 7,000  Level Minneapolis Center
Mon 05:59:50 AM 45.5031 -95.9011 86° East 186 214 7,000  Level Minneapolis Center
Mon 06:00:50 AM 45.5058 -95.8322 87° East 183 211 7,000  Level Minneapolis Center
Mon 06:01:50 AM 45.5075 -95.7564 88° East 185 213 7,000 50 Level Minneapolis Center
Mon 06:02:51 AM 45.5094 -95.6828 88° East 185 213 7,100 50 Climbing Minneapolis Center
Mon 06:03:51 AM 45.5125 -95.6111 86° East 185 213 7,100  Level Minneapolis Center
Mon 06:04:51 AM 45.5133 -95.5356 89° East 187 215 7,100  Level Minneapolis Center
Mon 06:05:52 AM 45.5150 -95.4631 88° East 185 213 7,100  Level Minneapolis Center
Mon 06:06:52 AM 45.5164 -95.3906 88° East 183 211 7,100  Level Minneapolis Center
Mon 06:07:52 AM 45.5183 -95.3178 88° East 186 214 7,100  Level Minneapolis Center
Mon 06:08:52 AM 45.5203 -95.2450 88° East 184 212 7,100  Level Minneapolis Center
Mon 06:09:53 AM 45.5231 -95.1722 87° East 184 212 7,100  Level Minneapolis Center
Mon 06:10:53 AM 45.5239 -95.0983 89° East 185 213 7,100  Level Minneapolis Center
Mon 06:11:53 AM 45.5256 -95.0286 88° East 184 212 7,100  Level Minneapolis Center
Mon 06:13:06 AM 45.5272 -94.9403 88° East 185 213 7,100  Level Minneapolis Center
Mon 06:14:06 AM 45.5275 -94.8664 90° East 186 214 7,100  Level Minneapolis Center
Mon 06:15:06 AM 45.5289 -94.7939 88° East 185 213 7,100  Level Minneapolis Center
Mon 06:16:06 AM 45.5289 -94.7364 90° East 184 212 7,100  Level Minneapolis Center
Mon 06:17:07 AM 45.5361 -94.6481 83° East 187 215 7,100 -248 Level Minneapolis Center
Mon 06:18:07 AM 45.5383 -94.5725 88° East 189 217 6,600 -500 Descending Minneapolis Center
Mon 06:19:07 AM 45.5411 -94.4939 87° East 195 224 6,100 -645 Descending Minneapolis Center
Mon 06:20:08 AM 45.5428 -94.4147 88° East 200 230 5,300 -787 Descending Minneapolis Center

Login

Don't have an account? Register now (free) for customized features, flight alerts, and more!